sensor_id;sensor_type;location;lat;lon;timestamp;pressure;altitude;pressure_sealevel;temperature;humidity
4528;BME280;62320;51.520;6.818;2023-08-08T00:02:46;101005.63;;;15.19;92.38
4528;BME280;62320;51.520;6.818;2023-08-08T00:12:47;100998.72;;;15.16;92.46
4528;BME280;62320;51.520;6.818;2023-08-08T00:22:49;100992.69;;;15.11;92.08
4528;BME280;62320;51.520;6.818;2023-08-08T00:32:50;101004.97;;;15.05;91.78
4528;BME280;62320;51.520;6.818;2023-08-08T00:42:52;100993.78;;;14.98;91.59
4528;BME280;62320;51.520;6.818;2023-08-08T00:52:54;100986.91;;;14.94;92.36
4528;BME280;62320;51.520;6.818;2023-08-08T01:02:55;100992.91;;;14.97;92.31
4528;BME280;62320;51.520;6.818;2023-08-08T01:13:00;100982.50;;;14.97;92.41
4528;BME280;62320;51.520;6.818;2023-08-08T01:23:09;100980.88;;;14.89;93.13
4528;BME280;62320;51.520;6.818;2023-08-08T01:33:12;100968.72;;;14.89;92.68
4528;BME280;62320;51.520;6.818;2023-08-08T01:43:15;100959.16;;;14.91;92.60
4528;BME280;62320;51.520;6.818;2023-08-08T01:53:16;100951.44;;;14.84;92.66
4528;BME280;62320;51.520;6.818;2023-08-08T02:03:18;100937.56;;;14.83;92.38
4528;BME280;62320;51.520;6.818;2023-08-08T02:13:20;100956.72;;;14.79;92.93
4528;BME280;62320;51.520;6.818;2023-08-08T02:23:21;100948.94;;;14.78;92.76
4528;BME280;62320;51.520;6.818;2023-08-08T02:33:23;100955.97;;;14.71;92.62
4528;BME280;62320;51.520;6.818;2023-08-08T02:43:25;100942.97;;;14.71;92.84
4528;BME280;62320;51.520;6.818;2023-08-08T02:53:26;100932.47;;;14.76;94.98
4528;BME280;62320;51.520;6.818;2023-08-08T03:03:28;100916.84;;;14.77;94.22
4528;BME280;62320;51.520;6.818;2023-08-08T03:13:30;100924.59;;;14.79;94.96
4528;BME280;62320;51.520;6.818;2023-08-08T03:23:31;100907.25;;;14.79;96.77
4528;BME280;62320;51.520;6.818;2023-08-08T03:33:33;100887.31;;;14.78;96.79
4528;BME280;62320;51.520;6.818;2023-08-08T03:43:35;100892.63;;;14.71;100.00
4528;BME280;62320;51.520;6.818;2023-08-08T03:53:36;100921.41;;;14.62;98.68
4528;BME280;62320;51.520;6.818;2023-08-08T04:03:38;100918.03;;;14.55;98.79
4528;BME280;62320;51.520;6.818;2023-08-08T04:13:39;100908.53;;;14.53;98.88
4528;BME280;62320;51.520;6.818;2023-08-08T04:23:41;100899.06;;;14.46;99.42
4528;BME280;62320;51.520;6.818;2023-08-08T04:33:42;100903.44;;;14.44;99.90
4528;BME280;62320;51.520;6.818;2023-08-08T04:43:44;100897.44;;;14.39;100.00
4528;BME280;62320;51.520;6.818;2023-08-08T04:53:45;100896.50;;;14.43;100.00
4528;BME280;62320;51.520;6.818;2023-08-08T05:03:47;100892.16;;;14.43;99.99
4528;BME280;62320;51.520;6.818;2023-08-08T05:13:49;100889.59;;;14.42;99.81
4528;BME280;62320;51.520;6.818;2023-08-08T05:23:51;100896.50;;;14.44;100.00
4528;BME280;62320;51.520;6.818;2023-08-08T05:33:52;100906.00;;;14.47;100.00
4528;BME280;62320;51.520;6.818;2023-08-08T05:43:54;100895.47;;;14.54;100.00
4528;BME280;62320;51.520;6.818;2023-08-08T05:53:56;100903.22;;;14.59;100.00
4528;BME280;62320;51.520;6.818;2023-08-08T06:04:00;100908.28;;;14.69;100.00
4528;BME280;62320;51.520;6.818;2023-08-08T06:14:02;100914.22;;;14.77;100.00
4528;BME280;62320;51.520;6.818;2023-08-08T06:24:04;100920.16;;;14.87;100.00
4528;BME280;62320;51.520;6.818;2023-08-08T06:34:06;100918.28;;;14.95;100.00
4528;BME280;62320;51.520;6.818;2023-08-08T06:44:07;100939.00;;;15.02;100.00
4528;BME280;62320;51.520;6.818;2023-08-08T06:54:10;100917.16;;;15.13;100.00
4528;BME280;62320;51.520;6.818;2023-08-08T07:04:11;100916.72;;;15.38;100.00
4528;BME280;62320;51.520;6.818;2023-08-08T07:14:13;100915.00;;;15.88;100.00
4528;BME280;62320;51.520;6.818;2023-08-08T07:24:14;100901.00;;;16.33;100.00
4528;BME280;62320;51.520;6.818;2023-08-08T07:34:16;100894.13;;;16.69;99.53
4528;BME280;62320;51.520;6.818;2023-08-08T07:44:17;100887.34;;;16.98;97.81
4528;BME280;62320;51.520;6.818;2023-08-08T07:54:19;100881.03;;;17.41;96.84
4528;BME280;62320;51.520;6.818;2023-08-08T08:04:20;100884.81;;;17.63;95.57
4528;BME280;62320;51.520;6.818;2023-08-08T08:14:22;100899.03;;;17.85;96.07
4528;BME280;62320;51.520;6.818;2023-08-08T08:24:24;100882.56;;;18.12;91.50
4528;BME280;62320;51.520;6.818;2023-08-08T08:34:26;100895.66;;;18.40;92.47
4528;BME280;62320;51.520;6.818;2023-08-08T08:44:27;100888.66;;;18.42;90.57
4528;BME280;62320;51.520;6.818;2023-08-08T08:54:32;100890.50;;;18.38;90.64
4528;BME280;62320;51.520;6.818;2023-08-08T09:04:34;100878.00;;;18.48;89.63
4528;BME280;62320;51.520;6.818;2023-08-08T09:14:40;100878.47;;;18.62;88.51
4528;BME280;62320;51.520;6.818;2023-08-08T09:24:42;100878.25;;;18.68;86.59
4528;BME280;62320;51.520;6.818;2023-08-08T09:34:43;100865.56;;;18.82;86.47
4528;BME280;62320;51.520;6.818;2023-08-08T09:44:46;100876.06;;;18.82;85.06
4528;BME280;62320;51.520;6.818;2023-08-08T09:54:48;100872.78;;;18.76;83.65
4528;BME280;62320;51.520;6.818;2023-08-08T10:04:50;100881.72;;;18.96;84.82
4528;BME280;62320;51.520;6.818;2023-08-08T10:14:55;100875.69;;;18.93;84.87
4528;BME280;62320;51.520;6.818;2023-08-08T10:24:57;100884.44;;;18.66;82.56
4528;BME280;62320;51.520;6.818;2023-08-08T10:35:03;100886.88;;;18.42;84.03
4528;BME280;62320;51.520;6.818;2023-08-08T10:45:10;100889.00;;;18.30;84.54
4528;BME280;62320;51.520;6.818;2023-08-08T10:55:19;100895.06;;;18.32;83.52
4528;BME280;62320;51.520;6.818;2023-08-08T11:05:24;100894.97;;;18.35;81.54
4528;BME280;62320;51.520;6.818;2023-08-08T11:15:27;100896.41;;;18.46;81.83
4528;BME280;62320;51.520;6.818;2023-08-08T11:25:30;100889.66;;;18.67;80.94
4528;BME280;62320;51.520;6.818;2023-08-08T11:35:32;100882.31;;;18.78;81.41
4528;BME280;62320;51.520;6.818;2023-08-08T11:45:35;100863.97;;;18.78;79.52
4528;BME280;62320;51.520;6.818;2023-08-08T11:55:37;100863.63;;;18.89;79.83
4528;BME280;62320;51.520;6.818;2023-08-08T12:05:38;100869.16;;;19.06;79.20
4528;BME280;62320;51.520;6.818;2023-08-08T12:15:42;100856.75;;;19.11;78.75
4528;BME280;62320;51.520;6.818;2023-08-08T12:25:43;100858.97;;;19.23;76.84
4528;BME280;62320;51.520;6.818;2023-08-08T12:35:45;100864.94;;;19.27;77.26
4528;BME280;62320;51.520;6.818;2023-08-08T12:45:47;100848.38;;;19.26;76.29
4528;BME280;62320;51.520;6.818;2023-08-08T12:55:49;100867.28;;;19.36;76.67
4528;BME280;62320;51.520;6.818;2023-08-08T13:05:50;100858.16;;;19.47;78.19
4528;BME280;62320;51.520;6.818;2023-08-08T13:15:52;100848.25;;;19.55;76.93
4528;BME280;62320;51.520;6.818;2023-08-08T13:25:54;100862.28;;;19.54;76.85
4528;BME280;62320;51.520;6.818;2023-08-08T13:35:56;100848.03;;;19.61;76.86
4528;BME280;62320;51.520;6.818;2023-08-08T13:45:57;100870.06;;;19.56;75.18
4528;BME280;62320;51.520;6.818;2023-08-08T13:55:59;100876.06;;;19.35;76.53
4528;BME280;62320;51.520;6.818;2023-08-08T14:06:01;100863.19;;;19.27;76.96
4528;BME280;62320;51.520;6.818;2023-08-08T14:16:02;100863.69;;;19.40;76.72
4528;BME280;62320;51.520;6.818;2023-08-08T14:26:04;100876.81;;;19.38;76.22
4528;BME280;62320;51.520;6.818;2023-08-08T14:36:05;100860.56;;;19.53;75.63
4528;BME280;62320;51.520;6.818;2023-08-08T14:46:07;100879.59;;;19.58;73.70
4528;BME280;62320;51.520;6.818;2023-08-08T14:56:09;100873.94;;;19.70;73.65
4528;BME280;62320;51.520;6.818;2023-08-08T15:06:10;100866.53;;;19.81;71.72
4528;BME280;62320;51.520;6.818;2023-08-08T15:16:12;100877.66;;;19.88;70.13
4528;BME280;62320;51.520;6.818;2023-08-08T15:26:16;100876.50;;;19.97;69.87
4528;BME280;62320;51.520;6.818;2023-08-08T15:36:21;100873.38;;;19.85;70.29
4528;BME280;62320;51.520;6.818;2023-08-08T15:46:23;100877.00;;;19.83;70.80
4528;BME280;62320;51.520;6.818;2023-08-08T15:56:24;100877.25;;;19.75;70.06
4528;BME280;62320;51.520;6.818;2023-08-08T16:06:26;100890.59;;;19.69;68.80
4528;BME280;62320;51.520;6.818;2023-08-08T16:16:28;100888.94;;;19.67;69.74
4528;BME280;62320;51.520;6.818;2023-08-08T16:26:29;100886.31;;;19.67;70.99
4528;BME280;62320;51.520;6.818;2023-08-08T16:36:31;100887.16;;;19.67;70.94
4528;BME280;62320;51.520;6.818;2023-08-08T16:46:32;100875.59;;;19.73;69.57
4528;BME280;62320;51.520;6.818;2023-08-08T16:56:34;100887.13;;;19.69;71.09
4528;BME280;62320;51.520;6.818;2023-08-08T17:06:38;100882.22;;;19.58;70.72
4528;BME280;62320;51.520;6.818;2023-08-08T17:16:40;100865.97;;;19.49;71.09
4528;BME280;62320;51.520;6.818;2023-08-08T17:26:41;100862.75;;;19.41;71.01
4528;BME280;62320;51.520;6.818;2023-08-08T17:36:45;100866.59;;;19.31;73.06
4528;BME280;62320;51.520;6.818;2023-08-08T17:46:46;100869.34;;;19.26;75.49
4528;BME280;62320;51.520;6.818;2023-08-08T17:56:48;100861.91;;;19.14;76.52
4528;BME280;62320;51.520;6.818;2023-08-08T18:06:49;100879.78;;;19.01;75.71
4528;BME280;62320;51.520;6.818;2023-08-08T18:16:51;100874.97;;;18.88;76.19
4528;BME280;62320;51.520;6.818;2023-08-08T18:26:53;100872.72;;;18.77;78.89
4528;BME280;62320;51.520;6.818;2023-08-08T18:36:54;100868.13;;;18.58;79.17
4528;BME280;62320;51.520;6.818;2023-08-08T18:46:56;100862.47;;;18.42;79.79
4528;BME280;62320;51.520;6.818;2023-08-08T18:56:57;100881.16;;;18.30;82.19
4528;BME280;62320;51.520;6.818;2023-08-08T19:06:59;100885.31;;;18.08;83.77
4528;BME280;62320;51.520;6.818;2023-08-08T19:17:01;100882.41;;;17.88;85.27
4528;BME280;62320;51.520;6.818;2023-08-08T19:27:02;100873.25;;;17.71;85.03
4528;BME280;62320;51.520;6.818;2023-08-08T19:37:04;100861.78;;;17.43;87.88
4528;BME280;62320;51.520;6.818;2023-08-08T19:47:05;100895.25;;;17.31;88.10
4528;BME280;62320;51.520;6.818;2023-08-08T19:57:07;100894.50;;;17.26;88.62
4528;BME280;62320;51.520;6.818;2023-08-08T20:07:09;100895.66;;;17.14;89.44
4528;BME280;62320;51.520;6.818;2023-08-08T20:17:10;100879.50;;;16.97;91.70
4528;BME280;62320;51.520;6.818;2023-08-08T20:27:12;100872.88;;;16.85;92.31
4528;BME280;62320;51.520;6.818;2023-08-08T20:37:13;100849.69;;;16.72;94.50
4528;BME280;62320;51.520;6.818;2023-08-08T20:47:15;100836.75;;;16.67;92.93
4528;BME280;62320;51.520;6.818;2023-08-08T20:57:16;100842.19;;;16.57;92.76
4528;BME280;62320;51.520;6.818;2023-08-08T21:07:18;100826.63;;;16.52;94.72
4528;BME280;62320;51.520;6.818;2023-08-08T21:17:20;100817.19;;;16.47;96.24
4528;BME280;62320;51.520;6.818;2023-08-08T21:27:22;100807.66;;;16.44;97.41
4528;BME280;62320;51.520;6.818;2023-08-08T21:37:24;100793.84;;;16.39;98.38
4528;BME280;62320;51.520;6.818;2023-08-08T21:47:25;100773.03;;;16.36;96.95
4528;BME280;62320;51.520;6.818;2023-08-08T21:57:27;100770.47;;;16.34;95.17
4528;BME280;62320;51.520;6.818;2023-08-08T22:07:28;100757.59;;;16.28;98.37
4528;BME280;62320;51.520;6.818;2023-08-08T22:17:30;100741.81;;;16.33;97.56
4528;BME280;62320;51.520;6.818;2023-08-08T22:27:32;100742.81;;;16.27;100.00
4528;BME280;62320;51.520;6.818;2023-08-08T22:37:34;100731.59;;;16.24;98.99
4528;BME280;62320;51.520;6.818;2023-08-08T22:47:36;100721.06;;;16.27;98.80
4528;BME280;62320;51.520;6.818;2023-08-08T22:57:38;100721.19;;;16.22;100.00
4528;BME280;62320;51.520;6.818;2023-08-08T23:07:39;100716.94;;;16.18;99.04
4528;BME280;62320;51.520;6.818;2023-08-08T23:17:41;100703.03;;;16.18;98.67
4528;BME280;62320;51.520;6.818;2023-08-08T23:27:43;100717.72;;;16.22;97.91
4528;BME280;62320;51.520;6.818;2023-08-08T23:37:44;100749.22;;;15.76;100.00
4528;BME280;62320;51.520;6.818;2023-08-08T23:47:46;100724.22;;;15.66;100.00
4528;BME280;62320;51.520;6.818;2023-08-08T23:57:47;100723.63;;;15.53;100.00
